sensor_id;sensor_type;location;lat;lon;timestamp;pressure;altitude;pressure_sealevel;temperature;humidity
43119;BME280;28729;49.838;8.650;2022-10-01T00:01:46;99322.03;;;10.17;100.00
43119;BME280;28729;49.838;8.650;2022-10-01T00:06:17;99318.59;;;10.26;100.00
43119;BME280;28729;49.838;8.650;2022-10-01T00:10:19;99322.28;;;10.37;100.00
43119;BME280;28729;49.838;8.650;2022-10-01T00:14:21;99320.41;;;10.43;100.00
43119;BME280;28729;49.838;8.650;2022-10-01T00:18:23;99332.09;;;10.55;100.00
43119;BME280;28729;49.838;8.650;2022-10-01T00:22:24;99322.53;;;10.63;100.00
43119;BME280;28729;49.838;8.650;2022-10-01T00:26:29;99312.38;;;10.68;100.00
43119;BME280;28729;49.838;8.650;2022-10-01T00:30:32;99312.97;;;10.76;100.00
43119;BME280;28729;49.838;8.650;2022-10-01T00:34:39;99305.88;;;10.80;100.00
43119;BME280;28729;49.838;8.650;2022-10-01T00:38:41;99287.69;;;10.84;100.00
43119;BME280;28729;49.838;8.650;2022-10-01T00:42:43;99285.50;;;10.86;100.00
43119;BME280;28729;49.838;8.650;2022-10-01T00:46:45;99273.16;;;10.93;100.00
43119;BME280;28729;49.838;8.650;2022-10-01T00:50:47;99275.66;;;11.00;100.00
43119;BME280;28729;49.838;8.650;2022-10-01T00:55:00;99274.84;;;11.00;100.00
43119;BME280;28729;49.838;8.650;2022-10-01T00:59:05;99275.44;;;11.07;100.00
43119;BME280;28729;49.838;8.650;2022-10-01T01:03:09;99273.53;;;11.07;100.00
43119;BME280;28729;49.838;8.650;2022-10-01T01:07:11;99270.28;;;11.15;100.00
43119;BME280;28729;49.838;8.650;2022-10-01T01:11:28;99274.97;;;11.20;100.00
43119;BME280;28729;49.838;8.650;2022-10-01T01:15:54;99260.94;;;11.22;100.00
43119;BME280;28729;49.838;8.650;2022-10-01T01:28:46;99256.56;;;11.36;100.00
43119;BME280;28729;49.838;8.650;2022-10-01T01:33:19;99253.84;;;11.41;100.00
43119;BME280;28729;49.838;8.650;2022-10-01T01:37:23;99249.13;;;11.41;100.00
43119;BME280;28729;49.838;8.650;2022-10-01T01:41:28;99238.72;;;11.49;100.00
43119;BME280;28729;49.838;8.650;2022-10-01T01:45:34;99241.47;;;11.49;100.00
43119;BME280;28729;49.838;8.650;2022-10-01T01:49:41;99227.38;;;11.45;100.00
43119;BME280;28729;49.838;8.650;2022-10-01T01:53:43;99226.53;;;11.39;100.00
43119;BME280;28729;49.838;8.650;2022-10-01T01:57:45;99221.84;;;11.40;100.00
43119;BME280;28729;49.838;8.650;2022-10-01T02:01:47;99221.28;;;11.38;100.00
43119;BME280;28729;49.838;8.650;2022-10-01T02:06:12;99224.53;;;11.30;100.00
43119;BME280;28729;49.838;8.650;2022-10-01T02:14:40;99202.25;;;11.36;100.00
43119;BME280;28729;49.838;8.650;2022-10-01T02:18:55;99208.31;;;11.38;100.00
43119;BME280;28729;49.838;8.650;2022-10-01T02:23:02;99209.41;;;11.37;99.42
43119;BME280;28729;49.838;8.650;2022-10-01T02:27:12;99210.53;;;11.36;99.17
43119;BME280;28729;49.838;8.650;2022-10-01T02:31:15;99220.41;;;11.32;99.20
43119;BME280;28729;49.838;8.650;2022-10-01T02:35:19;99214.34;;;11.35;100.00
43119;BME280;28729;49.838;8.650;2022-10-01T02:39:23;99200.84;;;11.39;100.00
43119;BME280;28729;49.838;8.650;2022-10-01T02:43:33;99201.09;;;11.32;100.00
43119;BME280;28729;49.838;8.650;2022-10-01T02:47:46;99198.31;;;11.27;100.00
43119;BME280;28729;49.838;8.650;2022-10-01T02:56:13;99175.47;;;11.32;100.00
43119;BME280;28729;49.838;8.650;2022-10-01T03:00:35;99184.03;;;11.35;99.29
43119;BME280;28729;49.838;8.650;2022-10-01T03:04:37;99182.09;;;11.36;98.68
43119;BME280;28729;49.838;8.650;2022-10-01T03:12:54;99174.97;;;11.45;97.64
43119;BME280;28729;49.838;8.650;2022-10-01T03:16:56;99169.16;;;11.47;96.84
43119;BME280;28729;49.838;8.650;2022-10-01T03:20:57;99158.41;;;11.50;95.06
43119;BME280;28729;49.838;8.650;2022-10-01T03:24:59;99147.41;;;11.60;94.75
43119;BME280;28729;49.838;8.650;2022-10-01T03:29:03;99141.59;;;11.62;94.16
43119;BME280;28729;49.838;8.650;2022-10-01T03:33:05;99142.16;;;11.64;94.70
43119;BME280;28729;49.838;8.650;2022-10-01T03:37:14;99130.03;;;11.70;94.10
43119;BME280;28729;49.838;8.650;2022-10-01T03:41:28;99132.53;;;11.67;94.10
43119;BME280;28729;49.838;8.650;2022-10-01T03:45:29;99131.16;;;11.69;93.46
43119;BME280;28729;49.838;8.650;2022-10-01T03:49:37;99127.84;;;11.72;92.51
43119;BME280;28729;49.838;8.650;2022-10-01T03:53:39;99121.53;;;11.87;92.16
43119;BME280;28729;49.838;8.650;2022-10-01T03:57:48;99132.53;;;11.82;92.16
43119;BME280;28729;49.838;8.650;2022-10-01T04:01:50;99127.34;;;11.91;92.40
43119;BME280;28729;49.838;8.650;2022-10-01T04:05:52;99138.34;;;11.85;94.10
43119;BME280;28729;49.838;8.650;2022-10-01T04:09:53;99142.75;;;11.76;96.91
43119;BME280;28729;49.838;8.650;2022-10-01T04:13:55;99131.63;;;11.51;100.00
43119;BME280;28729;49.838;8.650;2022-10-01T04:17:59;99136.56;;;11.28;100.00
43119;BME280;28729;49.838;8.650;2022-10-01T04:22:02;99142.78;;;11.03;100.00
43119;BME280;28729;49.838;8.650;2022-10-01T04:26:04;99149.56;;;10.75;100.00
43119;BME280;28729;49.838;8.650;2022-10-01T04:30:08;99142.00;;;10.55;100.00
43119;BME280;28729;49.838;8.650;2022-10-01T04:34:10;99149.06;;;10.41;100.00
43119;BME280;28729;49.838;8.650;2022-10-01T04:38:15;99137.22;;;10.35;100.00
43119;BME280;28729;49.838;8.650;2022-10-01T04:42:18;99135.75;;;10.27;100.00
43119;BME280;28729;49.838;8.650;2022-10-01T04:46:19;99123.03;;;10.21;100.00
43119;BME280;28729;49.838;8.650;2022-10-01T04:50:23;99116.66;;;10.16;100.00
43119;BME280;28729;49.838;8.650;2022-10-01T04:54:25;99108.88;;;10.08;100.00
43119;BME280;28729;49.838;8.650;2022-10-01T04:58:27;99112.16;;;10.04;100.00
43119;BME280;28729;49.838;8.650;2022-10-01T05:02:29;99101.41;;;10.03;100.00
43119;BME280;28729;49.838;8.650;2022-10-01T05:06:30;99096.16;;;10.01;100.00
43119;BME280;28729;49.838;8.650;2022-10-01T05:10:32;99079.09;;;9.99;100.00
43119;BME280;28729;49.838;8.650;2022-10-01T05:14:37;99068.00;;;9.89;100.00
43119;BME280;28729;49.838;8.650;2022-10-01T05:18:39;99061.09;;;9.87;100.00
43119;BME280;28729;49.838;8.650;2022-10-01T05:22:40;99032.50;;;9.88;100.00
43119;BME280;28729;49.838;8.650;2022-10-01T05:26:42;99042.13;;;9.90;100.00
43119;BME280;28729;49.838;8.650;2022-10-01T05:30:44;99032.53;;;9.93;100.00
43119;BME280;28729;49.838;8.650;2022-10-01T05:34:46;99043.81;;;9.96;100.00
43119;BME280;28729;49.838;8.650;2022-10-01T05:38:53;99049.31;;;9.96;100.00
43119;BME280;28729;49.838;8.650;2022-10-01T05:42:58;99051.31;;;10.01;100.00
43119;BME280;28729;49.838;8.650;2022-10-01T05:47:00;99044.41;;;9.98;100.00
43119;BME280;28729;49.838;8.650;2022-10-01T05:51:03;99055.41;;;9.98;100.00
43119;BME280;28729;49.838;8.650;2022-10-01T05:55:07;99047.72;;;10.00;100.00
43119;BME280;28729;49.838;8.650;2022-10-01T05:59:09;99058.78;;;10.06;100.00
43119;BME280;28729;49.838;8.650;2022-10-01T06:03:12;99042.56;;;10.09;100.00
43119;BME280;28729;49.838;8.650;2022-10-01T06:07:15;99057.72;;;10.12;100.00
43119;BME280;28729;49.838;8.650;2022-10-01T06:11:17;99035.16;;;10.15;100.00
43119;BME280;28729;49.838;8.650;2022-10-01T06:15:19;99035.41;;;10.13;100.00
43119;BME280;28729;49.838;8.650;2022-10-01T06:19:20;99028.53;;;10.16;100.00
43119;BME280;28729;49.838;8.650;2022-10-01T06:23:22;99032.41;;;10.15;100.00
43119;BME280;28729;49.838;8.650;2022-10-01T06:27:26;99043.94;;;10.12;100.00
43119;BME280;28729;49.838;8.650;2022-10-01T06:31:28;99035.16;;;10.15;100.00
43119;BME280;28729;49.838;8.650;2022-10-01T06:35:31;99052.22;;;10.17;100.00
43119;BME280;28729;49.838;8.650;2022-10-01T06:39:33;99039.28;;;10.12;100.00
43119;BME280;28729;49.838;8.650;2022-10-01T06:43:34;99044.19;;;10.10;100.00
43119;BME280;28729;49.838;8.650;2022-10-01T06:47:36;99023.53;;;10.02;100.00
43119;BME280;28729;49.838;8.650;2022-10-01T06:51:38;99031.53;;;10.09;100.00
43119;BME280;28729;49.838;8.650;2022-10-01T06:56:03;99040.38;;;10.16;100.00
43119;BME280;28729;49.838;8.650;2022-10-01T07:00:06;99018.59;;;10.10;100.00
43119;BME280;28729;49.838;8.650;2022-10-01T07:04:09;99028.50;;;10.11;100.00
43119;BME280;28729;49.838;8.650;2022-10-01T07:08:11;99024.09;;;10.10;100.00
43119;BME280;28729;49.838;8.650;2022-10-01T07:12:13;99034.53;;;10.02;100.00
43119;BME280;28729;49.838;8.650;2022-10-01T07:16:15;99024.09;;;10.10;100.00
43119;BME280;28729;49.838;8.650;2022-10-01T07:20:18;99023.31;;;10.14;100.00
43119;BME280;28729;49.838;8.650;2022-10-01T07:24:21;99028.53;;;10.16;100.00
43119;BME280;28729;49.838;8.650;2022-10-01T07:28:23;99030.19;;;10.12;100.00
43119;BME280;28729;49.838;8.650;2022-10-01T07:32:27;99036.75;;;10.11;100.00
43119;BME280;28729;49.838;8.650;2022-10-01T07:36:31;99022.22;;;10.15;100.00
43119;BME280;28729;49.838;8.650;2022-10-01T07:40:33;99014.50;;;10.12;100.00
43119;BME280;28729;49.838;8.650;2022-10-01T07:44:35;99002.38;;;10.13;100.00
43119;BME280;28729;49.838;8.650;2022-10-01T07:48:37;99017.56;;;10.21;100.00
43119;BME280;28729;49.838;8.650;2022-10-01T07:52:38;99027.25;;;10.29;100.00
43119;BME280;28729;49.838;8.650;2022-10-01T07:56:40;99019.00;;;10.29;100.00
43119;BME280;28729;49.838;8.650;2022-10-01T08:00:42;99007.66;;;10.25;100.00
43119;BME280;28729;49.838;8.650;2022-10-01T08:04:43;99012.06;;;10.21;100.00
43119;BME280;28729;49.838;8.650;2022-10-01T08:09:04;99009.31;;;10.21;100.00
43119;BME280;28729;49.838;8.650;2022-10-01T08:13:10;99010.97;;;10.22;100.00
43119;BME280;28729;49.838;8.650;2022-10-01T08:17:15;98979.25;;;10.09;100.00
43119;BME280;28729;49.838;8.650;2022-10-01T08:21:17;98985.84;;;10.13;100.00
43119;BME280;28729;49.838;8.650;2022-10-01T08:25:18;98974.03;;;10.13;100.00
43119;BME280;28729;49.838;8.650;2022-10-01T08:29:20;98991.66;;;10.12;100.00
43119;BME280;28729;49.838;8.650;2022-10-01T08:33:22;99002.13;;;10.20;100.00
43119;BME280;28729;49.838;8.650;2022-10-01T08:37:25;99017.81;;;10.19;100.00
43119;BME280;28729;49.838;8.650;2022-10-01T08:41:52;99040.72;;;10.25;100.00
43119;BME280;28729;49.838;8.650;2022-10-01T08:45:58;99021.22;;;10.32;100.00
43119;BME280;28729;49.838;8.650;2022-10-01T08:50:48;99019.31;;;10.32;100.00
43119;BME280;28729;49.838;8.650;2022-10-01T08:54:50;99021.50;;;10.30;100.00
43119;BME280;28729;49.838;8.650;2022-10-01T08:59:01;99016.56;;;10.37;100.00
43119;BME280;28729;49.838;8.650;2022-10-01T09:03:05;99003.91;;;10.36;100.00
43119;BME280;28729;49.838;8.650;2022-10-01T09:15:51;99035.19;;;10.72;100.00
43119;BME280;28729;49.838;8.650;2022-10-01T09:20:26;99048.69;;;10.69;100.00
43119;BME280;28729;49.838;8.650;2022-10-01T09:28:49;99058.81;;;10.58;100.00
43119;BME280;28729;49.838;8.650;2022-10-01T09:33:07;99044.50;;;10.61;100.00
43119;BME280;28729;49.838;8.650;2022-10-01T09:41:45;99061.41;;;10.80;100.00
43119;BME280;28729;49.838;8.650;2022-10-01T09:45:49;99061.94;;;10.77;100.00
43119;BME280;28729;49.838;8.650;2022-10-01T09:49:52;99064.47;;;10.89;100.00
43119;BME280;28729;49.838;8.650;2022-10-01T09:54:04;99061.69;;;10.84;100.00
43119;BME280;28729;49.838;8.650;2022-10-01T09:58:16;99067.50;;;10.87;100.00
43119;BME280;28729;49.838;8.650;2022-10-01T10:02:24;99069.44;;;10.92;100.00
43119;BME280;28729;49.838;8.650;2022-10-01T10:06:28;99063.41;;;10.95;100.00
43119;BME280;28729;49.838;8.650;2022-10-01T10:10:59;99069.19;;;10.99;100.00
43119;BME280;28729;49.838;8.650;2022-10-01T10:15:07;99071.66;;;11.00;100.00
43119;BME280;28729;49.838;8.650;2022-10-01T10:19:26;99081.34;;;11.08;100.00
43119;BME280;28729;49.838;8.650;2022-10-01T10:23:28;99084.94;;;11.08;100.00
43119;BME280;28729;49.838;8.650;2022-10-01T10:27:31;99083.00;;;11.14;100.00
43119;BME280;28729;49.838;8.650;2022-10-01T10:31:41;99083.03;;;11.19;100.00
43119;BME280;28729;49.838;8.650;2022-10-01T10:35:44;99069.81;;;11.26;100.00
43119;BME280;28729;49.838;8.650;2022-10-01T10:39:47;99086.94;;;11.33;100.00
43119;BME280;28729;49.838;8.650;2022-10-01T10:44:02;99092.19;;;11.40;100.00
43119;BME280;28729;49.838;8.650;2022-10-01T10:48:10;99081.16;;;11.50;100.00
43119;BME280;28729;49.838;8.650;2022-10-01T10:52:28;99077.28;;;11.56;100.00
43119;BME280;28729;49.838;8.650;2022-10-01T10:56:30;99078.66;;;11.54;100.00
43119;BME280;28729;49.838;8.650;2022-10-01T11:00:35;99091.94;;;11.67;100.00
43119;BME280;28729;49.838;8.650;2022-10-01T11:04:44;99085.31;;;11.73;100.00
43119;BME280;28729;49.838;8.650;2022-10-01T11:08:55;99085.31;;;11.73;100.00
43119;BME280;28729;49.838;8.650;2022-10-01T11:13:27;99084.78;;;11.76;100.00
43119;BME280;28729;49.838;8.650;2022-10-01T11:17:52;99091.13;;;11.77;100.00
43119;BME280;28729;49.838;8.650;2022-10-01T11:22:09;99095.56;;;11.78;100.00
43119;BME280;28729;49.838;8.650;2022-10-01T11:35:23;99110.44;;;11.72;100.00
43119;BME280;28729;49.838;8.650;2022-10-01T11:39:30;99108.56;;;11.88;100.00
43119;BME280;28729;49.838;8.650;2022-10-01T11:43:55;99105.53;;;11.99;100.00
43119;BME280;28729;49.838;8.650;2022-10-01T11:47:59;99100.53;;;12.12;100.00
43119;BME280;28729;49.838;8.650;2022-10-01T11:52:11;99103.00;;;12.13;100.00
43119;BME280;28729;49.838;8.650;2022-10-01T12:00:43;99118.22;;;12.26;100.00
43119;BME280;28729;49.838;8.650;2022-10-01T12:04:56;99116.28;;;12.26;100.00
43119;BME280;28729;49.838;8.650;2022-10-01T12:09:13;99122.63;;;12.32;100.00
43119;BME280;28729;49.838;8.650;2022-10-01T12:13:32;99116.25;;;12.37;100.00
43119;BME280;28729;49.838;8.650;2022-10-01T12:17:44;99122.34;;;12.44;100.00
43119;BME280;28729;49.838;8.650;2022-10-01T12:21:53;99122.31;;;12.49;100.00
43119;BME280;28729;49.838;8.650;2022-10-01T12:26:06;99123.69;;;12.62;100.00
43119;BME280;28729;49.838;8.650;2022-10-01T12:30:21;99117.00;;;12.73;100.00
43119;BME280;28729;49.838;8.650;2022-10-01T12:34:31;99106.47;;;12.85;100.00
43119;BME280;28729;49.838;8.650;2022-10-01T12:39:30;99118.50;;;13.25;100.00
43119;BME280;28729;49.838;8.650;2022-10-01T12:43:39;99123.69;;;13.81;100.00
43119;BME280;28729;49.838;8.650;2022-10-01T12:52:12;99104.78;;;14.23;100.00
43119;BME280;28729;49.838;8.650;2022-10-01T12:56:36;99094.66;;;14.08;100.00
43119;BME280;28729;49.838;8.650;2022-10-01T13:10:03;99120.94;;;14.74;100.00
43119;BME280;28729;49.838;8.650;2022-10-01T13:14:16;99118.44;;;15.20;100.00
43119;BME280;28729;49.838;8.650;2022-10-01T13:18:59;99109.66;;;15.75;100.00
43119;BME280;28729;49.838;8.650;2022-10-01T13:23:21;99119.66;;;16.09;100.00
43119;BME280;28729;49.838;8.650;2022-10-01T13:27:42;99123.84;;;16.25;100.00
43119;BME280;28729;49.838;8.650;2022-10-01T13:31:54;99129.88;;;16.13;100.00
43119;BME280;28729;49.838;8.650;2022-10-01T13:36:04;99130.56;;;16.24;100.00
43119;BME280;28729;49.838;8.650;2022-10-01T13:40:22;99137.06;;;16.33;100.00
43119;BME280;28729;49.838;8.650;2022-10-01T13:44:32;99127.78;;;16.24;100.00
43119;BME280;28729;49.838;8.650;2022-10-01T13:48:36;99130.34;;;16.02;100.00
43119;BME280;28729;49.838;8.650;2022-10-01T13:52:44;99129.91;;;15.94;100.00
43119;BME280;28729;49.838;8.650;2022-10-01T13:56:46;99131.78;;;15.99;100.00
43119;BME280;28729;49.838;8.650;2022-10-01T14:00:53;99125.50;;;15.75;100.00
43119;BME280;28729;49.838;8.650;2022-10-01T14:04:55;99126.31;;;15.75;100.00
43119;BME280;28729;49.838;8.650;2022-10-01T14:13:14;99130.34;;;16.02;100.00
43119;BME280;28729;49.838;8.650;2022-10-01T14:17:35;99132.06;;;16.16;100.00
43119;BME280;28729;49.838;8.650;2022-10-01T14:38:29;99146.72;;;15.84;100.00
43119;BME280;28729;49.838;8.650;2022-10-01T14:42:31;99147.88;;;15.83;100.00
43119;BME280;28729;49.838;8.650;2022-10-01T14:46:34;99145.09;;;15.83;100.00
43119;BME280;28729;49.838;8.650;2022-10-01T14:50:36;99162.41;;;15.94;100.00
43119;BME280;28729;49.838;8.650;2022-10-01T14:54:44;99150.13;;;15.81;100.00
43119;BME280;28729;49.838;8.650;2022-10-01T14:58:52;99154.25;;;15.84;100.00
43119;BME280;28729;49.838;8.650;2022-10-01T15:07:12;99159.31;;;15.58;100.00
43119;BME280;28729;49.838;8.650;2022-10-01T15:11:26;99159.81;;;15.41;100.00
43119;BME280;28729;49.838;8.650;2022-10-01T15:15:33;99164.91;;;15.34;100.00
43119;BME280;28729;49.838;8.650;2022-10-01T15:19:42;99171.47;;;15.19;100.00
43119;BME280;28729;49.838;8.650;2022-10-01T15:23:46;99177.91;;;15.14;100.00
43119;BME280;28729;49.838;8.650;2022-10-01T15:27:48;99183.47;;;15.14;100.00
43119;BME280;28729;49.838;8.650;2022-10-01T15:31:50;99196.34;;;15.05;100.00
43119;BME280;28729;49.838;8.650;2022-10-01T15:36:14;99199.50;;;14.93;100.00
43119;BME280;28729;49.838;8.650;2022-10-01T15:40:24;99196.84;;;14.83;100.00
43119;BME280;28729;49.838;8.650;2022-10-01T15:44:38;99183.06;;;14.73;100.00
43119;BME280;28729;49.838;8.650;2022-10-01T15:48:41;99188.94;;;14.66;100.00
43119;BME280;28729;49.838;8.650;2022-10-01T15:56:51;99205.19;;;14.49;100.00
43119;BME280;28729;49.838;8.650;2022-10-01T16:05:43;99220.78;;;14.40;100.00
43119;BME280;28729;49.838;8.650;2022-10-01T16:09:55;99240.19;;;14.40;100.00
43119;BME280;28729;49.838;8.650;2022-10-01T16:14:42;99242.44;;;14.32;100.00
43119;BME280;28729;49.838;8.650;2022-10-01T16:18:47;99242.75;;;14.31;100.00
43119;BME280;28729;49.838;8.650;2022-10-01T16:28:18;99263.22;;;14.30;100.00
43119;BME280;28729;49.838;8.650;2022-10-01T16:32:21;99263.22;;;14.30;100.00
43119;BME280;28729;49.838;8.650;2022-10-01T16:36:23;99274.91;;;14.27;100.00
43119;BME280;28729;49.838;8.650;2022-10-01T16:40:29;99287.09;;;14.26;100.00
43119;BME280;28729;49.838;8.650;2022-10-01T16:44:31;99294.31;;;14.22;100.00
43119;BME280;28729;49.838;8.650;2022-10-01T16:48:34;99279.69;;;14.16;100.00
43119;BME280;28729;49.838;8.650;2022-10-01T16:52:36;99297.72;;;14.08;100.00
43119;BME280;28729;49.838;8.650;2022-10-01T16:56:38;99300.22;;;14.10;100.00
43119;BME280;28729;49.838;8.650;2022-10-01T17:00:41;99317.69;;;14.05;100.00
43119;BME280;28729;49.838;8.650;2022-10-01T17:04:43;99336.00;;;14.01;100.00
43119;BME280;28729;49.838;8.650;2022-10-01T17:08:45;99337.16;;;13.95;100.00
43119;BME280;28729;49.838;8.650;2022-10-01T17:12:47;99345.16;;;14.02;100.00
43119;BME280;28729;49.838;8.650;2022-10-01T17:16:49;99348.75;;;14.02;100.00
43119;BME280;28729;49.838;8.650;2022-10-01T17:20:51;99353.72;;;14.05;100.00
43119;BME280;28729;49.838;8.650;2022-10-01T17:24:52;99350.94;;;14.05;100.00
43119;BME280;28729;49.838;8.650;2022-10-01T17:28:54;99355.94;;;14.03;100.00
43119;BME280;28729;49.838;8.650;2022-10-01T17:32:58;99360.31;;;14.09;100.00
43119;BME280;28729;49.838;8.650;2022-10-01T17:37:00;99374.72;;;14.17;100.00
43119;BME280;28729;49.838;8.650;2022-10-01T17:41:02;99380.84;;;14.13;100.00
43119;BME280;28729;49.838;8.650;2022-10-01T17:45:07;99378.34;;;14.12;100.00
43119;BME280;28729;49.838;8.650;2022-10-01T17:49:11;99399.13;;;14.09;100.00
43119;BME280;28729;49.838;8.650;2022-10-01T17:53:13;99406.59;;;14.09;100.00
43119;BME280;28729;49.838;8.650;2022-10-01T17:57:15;99423.53;;;14.02;100.00
43119;BME280;28729;49.838;8.650;2022-10-01T18:01:19;99423.78;;;14.06;100.00
43119;BME280;28729;49.838;8.650;2022-10-01T18:05:21;99439.03;;;14.03;100.00
43119;BME280;28729;49.838;8.650;2022-10-01T18:09:23;99439.91;;;13.99;100.00
43119;BME280;28729;49.838;8.650;2022-10-01T18:13:25;99455.69;;;13.98;100.00
43119;BME280;28729;49.838;8.650;2022-10-01T18:17:27;99456.53;;;13.94;100.00
43119;BME280;28729;49.838;8.650;2022-10-01T18:21:30;99469.00;;;13.91;100.00
43119;BME280;28729;49.838;8.650;2022-10-01T18:25:33;99478.97;;;13.87;100.00
43119;BME280;28729;49.838;8.650;2022-10-01T18:29:34;99486.16;;;13.88;100.00
43119;BME280;28729;49.838;8.650;2022-10-01T18:33:37;99488.66;;;13.89;100.00
43119;BME280;28729;49.838;8.650;2022-10-01T18:37:43;99501.13;;;13.87;100.00
43119;BME280;28729;49.838;8.650;2022-10-01T18:41:48;99498.94;;;13.84;100.00
43119;BME280;28729;49.838;8.650;2022-10-01T18:50:42;99521.91;;;13.84;100.00
43119;BME280;28729;49.838;8.650;2022-10-01T18:55:14;99535.19;;;13.87;100.00
43119;BME280;28729;49.838;8.650;2022-10-01T18:59:48;99534.63;;;13.90;100.00
43119;BME280;28729;49.838;8.650;2022-10-01T19:03:59;99539.34;;;13.95;100.00
43119;BME280;28729;49.838;8.650;2022-10-01T19:08:41;99547.66;;;13.95;100.00
43119;BME280;28729;49.838;8.650;2022-10-01T19:30:15;99597.50;;;14.00;100.00
43119;BME280;28729;49.838;8.650;2022-10-01T19:34:38;99614.69;;;13.97;100.00
43119;BME280;28729;49.838;8.650;2022-10-01T19:38:42;99623.81;;;13.98;100.00
43119;BME280;28729;49.838;8.650;2022-10-01T19:42:58;99623.28;;;13.96;100.00
43119;BME280;28729;49.838;8.650;2022-10-01T19:47:18;99626.31;;;13.94;100.00
43119;BME280;28729;49.838;8.650;2022-10-01T19:51:28;99636.56;;;13.94;100.00
43119;BME280;28729;49.838;8.650;2022-10-01T19:55:34;99645.72;;;13.99;100.00
43119;BME280;28729;49.838;8.650;2022-10-01T19:59:39;99654.59;;;14.01;100.00
43119;BME280;28729;49.838;8.650;2022-10-01T20:04:00;99662.91;;;14.01;100.00
43119;BME280;28729;49.838;8.650;2022-10-01T20:16:44;99683.38;;;14.00;100.00
43119;BME280;28729;49.838;8.650;2022-10-01T20:21:33;99688.94;;;13.90;100.00
43119;BME280;28729;49.838;8.650;2022-10-01T20:38:21;99698.72;;;13.35;100.00
43119;BME280;28729;49.838;8.650;2022-10-01T20:42:30;99725.84;;;13.28;100.00
43119;BME280;28729;49.838;8.650;2022-10-01T20:46:39;99728.53;;;13.22;100.00
43119;BME280;28729;49.838;8.650;2022-10-01T20:50:46;99720.25;;;13.22;100.00
43119;BME280;28729;49.838;8.650;2022-10-01T20:54:50;99724.94;;;13.22;100.00
43119;BME280;28729;49.838;8.650;2022-10-01T20:58:59;99731.31;;;13.22;100.00
43119;BME280;28729;49.838;8.650;2022-10-01T21:07:43;99744.31;;;13.22;100.00
43119;BME280;28729;49.838;8.650;2022-10-01T21:11:56;99750.19;;;13.31;100.00
43119;BME280;28729;49.838;8.650;2022-10-01T21:21:10;99753.91;;;13.57;100.00
43119;BME280;28729;49.838;8.650;2022-10-01T21:25:39;99765.84;;;13.67;100.00
43119;BME280;28729;49.838;8.650;2022-10-01T21:30:03;99764.75;;;13.74;100.00
43119;BME280;28729;49.838;8.650;2022-10-01T21:34:13;99773.63;;;13.76;100.00
43119;BME280;28729;49.838;8.650;2022-10-01T21:43:08;99791.38;;;13.80;100.00
43119;BME280;28729;49.838;8.650;2022-10-01T21:47:25;99787.78;;;13.84;100.00
43119;BME280;28729;49.838;8.650;2022-10-01T21:51:52;99807.47;;;13.88;100.00
43119;BME280;28729;49.838;8.650;2022-10-01T21:56:18;99816.38;;;13.95;100.00
43119;BME280;28729;49.838;8.650;2022-10-01T22:00:24;99809.16;;;13.94;100.00
43119;BME280;28729;49.838;8.650;2022-10-01T22:04:36;99823.56;;;13.96;100.00
43119;BME280;28729;49.838;8.650;2022-10-01T22:13:28;99829.69;;;13.98;100.00
43119;BME280;28729;49.838;8.650;2022-10-01T22:17:32;99842.41;;;13.99;100.00
43119;BME280;28729;49.838;8.650;2022-10-01T22:21:39;99838.53;;;13.95;100.00
43119;BME280;28729;49.838;8.650;2022-10-01T22:25:49;99842.94;;;13.91;100.00
43119;BME280;28729;49.838;8.650;2022-10-01T22:29:57;99846.78;;;13.85;100.00
43119;BME280;28729;49.838;8.650;2022-10-01T22:34:06;99843.44;;;13.78;100.00
43119;BME280;28729;49.838;8.650;2022-10-01T22:38:16;99846.44;;;13.71;100.00
43119;BME280;28729;49.838;8.650;2022-10-01T22:42:27;99861.59;;;13.58;100.00
43119;BME280;28729;49.838;8.650;2022-10-01T22:51:14;99862.31;;;13.33;100.00
43119;BME280;28729;49.838;8.650;2022-10-01T22:55:41;99861.44;;;13.28;100.00
43119;BME280;28729;49.838;8.650;2022-10-01T22:59:56;99869.34;;;13.19;100.00
43119;BME280;28729;49.838;8.650;2022-10-01T23:04:11;99875.69;;;13.14;100.00
43119;BME280;28729;49.838;8.650;2022-10-01T23:08:39;99861.00;;;13.09;100.00
43119;BME280;28729;49.838;8.650;2022-10-01T23:13:22;99862.34;;;13.06;100.00
43119;BME280;28729;49.838;8.650;2022-10-01T23:17:36;99881.44;;;13.08;100.00
43119;BME280;28729;49.838;8.650;2022-10-01T23:26:24;99891.69;;;13.07;100.00
43119;BME280;28729;49.838;8.650;2022-10-01T23:35:19;99889.78;;;13.13;100.00
43119;BME280;28729;49.838;8.650;2022-10-01T23:39:48;99892.56;;;13.13;100.00
43119;BME280;28729;49.838;8.650;2022-10-01T23:43:52;99896.16;;;13.13;100.00
43119;BME280;28729;49.838;8.650;2022-10-01T23:48:17;99910.88;;;13.19;100.00
43119;BME280;28729;49.838;8.650;2022-10-01T23:52:29;99912.28;;;13.21;100.00
43119;BME280;28729;49.838;8.650;2022-10-01T23:56:47;99918.44;;;13.29;100.00
